createdAt,value
2023-03-26T20:32:06.578Z,70.71
2023-03-26T20:34:40.223Z,70.47
2023-03-26T20:37:10.792Z,70.16
2023-03-26T20:39:42.053Z,70.30
2023-03-26T20:42:19.076Z,69.87
2023-03-26T20:44:49.250Z,70.63
2023-03-26T20:47:21.208Z,71.03
2023-03-26T20:49:54.110Z,70.53
2023-03-26T20:52:26.063Z,70.42
2023-03-26T20:54:59.087Z,69.90
2023-03-26T20:57:30.362Z,69.14
2023-03-26T21:00:01.323Z,68.95
2023-03-26T21:02:34.082Z,68.40
2023-03-26T21:05:14.973Z,68.15
2023-03-26T21:07:48.255Z,68.04
2023-03-26T21:10:20.237Z,67.78
2023-03-26T21:12:59.637Z,67.46
2023-03-26T21:15:32.849Z,67.32
2023-03-26T21:18:08.438Z,66.78
2023-03-26T21:20:48.184Z,66.56
2023-03-26T21:23:33.491Z,66.82
2023-03-26T21:26:18.426Z,66.67
2023-03-26T21:28:52.436Z,66.30
2023-03-26T21:31:25.130Z,66.53
2023-03-26T21:33:58.318Z,66.26
2023-03-26T21:36:33.548Z,66.63
2023-03-26T21:39:06.621Z,66.21
2023-03-26T21:41:47.876Z,66.32
2023-03-26T21:44:21.686Z,66.39
2023-03-26T21:46:55.141Z,66.17
2023-03-26T21:49:26.050Z,66.62
2023-03-26T21:52:00.218Z,66.82
2023-03-26T21:54:32.717Z,66.54
2023-03-26T21:57:34.098Z,66.58
2023-03-26T22:00:16.572Z,66.58
2023-03-26T22:03:01.779Z,66.60
2023-03-26T22:05:45.317Z,66.78
2023-03-26T22:08:30.072Z,66.55
2023-03-26T22:11:01.157Z,66.85
2023-03-26T22:13:35.634Z,67.06
2023-03-26T22:16:07.815Z,66.83
2023-03-26T22:18:43.824Z,67.12
2023-03-26T22:21:21.311Z,66.76
2023-03-26T22:23:58.263Z,67.22
2023-03-26T22:26:30.316Z,67.10
2023-03-26T22:29:02.437Z,66.92
2023-03-26T22:31:34.963Z,67.32
2023-03-26T22:34:07.861Z,67.43
2023-03-26T22:36:39.847Z,67.21
2023-03-26T22:39:14.147Z,67.50
2023-03-26T22:41:44.581Z,68.09
2023-03-26T22:44:20.209Z,68.20
2023-03-26T22:46:52.894Z,68.35
2023-03-26T22:49:28.234Z,68.49
2023-03-26T22:52:02.094Z,68.50
2023-03-26T22:54:36.744Z,68.49
2023-03-26T22:57:07.482Z,68.89
2023-03-26T22:59:39.820Z,68.82
2023-03-26T23:02:12.569Z,69.05
2023-03-26T23:04:42.875Z,68.86
2023-03-26T23:07:14.735Z,68.98
2023-03-26T23:09:50.635Z,69.37
2023-03-26T23:12:24.716Z,69.61
2023-03-26T23:14:55.972Z,69.59
2023-03-26T23:17:26.054Z,69.45
2023-03-26T23:19:57.752Z,69.89
2023-03-26T23:22:27.777Z,69.91
2023-03-26T23:25:02.170Z,70.17
2023-03-26T23:27:34.671Z,70.12
2023-03-26T23:30:05.038Z,70.42
2023-03-26T23:32:38.085Z,70.28
2023-03-26T23:35:10.414Z,70.62
2023-03-26T23:37:43.367Z,70.29
2023-03-26T23:40:19.218Z,70.30
2023-03-26T23:42:51.819Z,70.48
2023-03-26T23:45:22.381Z,70.65
2023-03-26T23:47:52.447Z,70.93
2023-03-26T23:50:25.712Z,70.79
2023-03-26T23:52:57.311Z,71.05
2023-03-26T23:55:30.480Z,71.23
2023-03-26T23:58:00.637Z,71.04
